createdAt,value
2023-05-09T00:00:41.089Z,11.22
2023-05-09T00:01:45.490Z,11.21
2023-05-09T00:02:50.314Z,11.21
2023-05-09T00:03:52.502Z,11.19
2023-05-09T00:04:57.244Z,11.20
2023-05-09T00:05:59.354Z,11.19
2023-05-09T00:07:04.679Z,11.15
2023-05-09T00:08:06.870Z,11.14
2023-05-09T00:09:11.556Z,11.15
2023-05-09T00:10:13.737Z,11.15
2023-05-09T00:11:18.373Z,11.12
2023-05-09T00:12:23.612Z,11.09
2023-05-09T00:13:28.631Z,11.07
2023-05-09T00:14:30.816Z,11.06
2023-05-09T00:15:35.972Z,11.05
2023-05-09T00:16:38.099Z,11.03
2023-05-09T00:17:42.802Z,11.02
2023-05-09T00:18:44.933Z,10.96
2023-05-09T00:19:49.837Z,10.95
2023-05-09T00:20:51.910Z,10.91
2023-05-09T00:21:57.217Z,10.86
2023-05-09T00:22:59.245Z,10.85
2023-05-09T00:24:04.137Z,10.85
2023-05-09T00:25:07.744Z,10.84
2023-05-09T00:26:12.817Z,10.78
2023-05-09T00:27:15.161Z,10.72
2023-05-09T00:28:22.453Z,10.67
2023-05-09T00:29:24.560Z,10.67
2023-05-09T00:30:29.159Z,10.64
2023-05-09T00:31:31.765Z,10.61
2023-05-09T00:32:37.160Z,10.60
2023-05-09T00:33:39.257Z,10.56
2023-05-09T00:34:43.869Z,10.52
2023-05-09T00:35:46.336Z,10.46
2023-05-09T00:36:51.083Z,10.40
2023-05-09T00:37:53.237Z,10.35
2023-05-09T00:38:57.844Z,10.34
2023-05-09T00:40:00.194Z,10.31
2023-05-09T00:41:04.842Z,10.31
2023-05-09T00:42:12.903Z,10.29
2023-05-09T00:43:17.597Z,10.28
2023-05-09T00:46:26.914Z,10.21
2023-05-09T00:47:29.564Z,10.21
2023-05-09T00:48:34.355Z,10.20
2023-05-09T00:49:36.433Z,10.17
2023-05-09T00:50:41.109Z,10.16
2023-05-09T00:51:43.317Z,10.14
2023-05-09T00:52:48.100Z,10.11
2023-05-09T00:53:50.464Z,10.08
2023-05-09T00:54:56.039Z,10.09
2023-05-09T00:56:00.344Z,10.08
2023-05-09T00:57:05.248Z,10.07
2023-05-09T00:58:07.468Z,10.04
2023-05-09T00:59:12.123Z,10.00
2023-05-09T01:00:15.689Z,9.97
2023-05-09T01:01:20.403Z,9.96
2023-05-09T01:02:25.325Z,9.95
2023-05-09T01:03:31.425Z,9.93
2023-05-09T01:04:34.085Z,9.90
2023-05-09T01:05:46.808Z,9.88
2023-05-09T01:06:55.635Z,9.88
2023-05-09T01:08:10.330Z,9.86
2023-05-09T01:09:19.671Z,9.85
2023-05-09T01:10:34.586Z,9.85
2023-05-09T01:11:41.647Z,9.84
2023-05-09T01:12:52.674Z,9.85
2023-05-09T01:14:06.784Z,9.86
2023-05-09T01:15:16.892Z,9.86
2023-05-09T01:16:26.889Z,9.86
2023-05-09T01:17:44.538Z,9.90
2023-05-09T01:18:51.857Z,9.87
2023-05-09T01:20:03.062Z,9.86
2023-05-09T01:21:09.101Z,9.85
2023-05-09T01:22:17.570Z,9.87
2023-05-09T01:23:56.524Z,9.87
2023-05-09T01:25:32.763Z,9.83
2023-05-09T01:26:45.485Z,9.80
2023-05-09T01:28:00.456Z,9.78
2023-05-09T01:29:28.082Z,9.76
2023-05-09T01:30:34.464Z,9.73
2023-05-09T01:31:41.215Z,9.72
2023-05-09T01:32:50.304Z,9.70
2023-05-09T01:33:56.896Z,9.69
2023-05-09T01:35:05.734Z,9.67
2023-05-09T01:36:12.728Z,9.64
2023-05-09T01:37:19.022Z,9.64
2023-05-09T01:38:25.756Z,9.64
2023-05-09T01:39:32.344Z,9.64
2023-05-09T01:40:36.103Z,9.63
2023-05-09T01:41:41.158Z,9.62
2023-05-09T01:42:46.094Z,9.63
2023-05-09T01:43:52.495Z,9.63
2023-05-09T01:44:59.636Z,9.62
2023-05-09T01:46:06.098Z,9.59
2023-05-09T01:47:09.823Z,9.57
2023-05-09T01:48:16.296Z,9.53
2023-05-09T01:49:20.579Z,9.51
2023-05-09T01:50:25.967Z,9.50
2023-05-09T01:51:29.973Z,9.49
2023-05-09T01:52:35.421Z,9.49
2023-05-09T01:53:40.478Z,9.48
2023-05-09T01:54:44.967Z,9.48
2023-05-09T01:55:51.397Z,9.46
2023-05-09T01:56:55.187Z,9.46
2023-05-09T01:58:01.650Z,9.44
2023-05-09T01:59:06.791Z,9.45
2023-05-09T02:00:16.711Z,9.44
2023-05-09T02:01:20.060Z,9.45
2023-05-09T02:02:25.150Z,9.45
2023-05-09T02:03:28.776Z,9.46
2023-05-09T02:04:35.194Z,9.46
2023-05-09T02:05:37.643Z,9.40
2023-05-09T02:06:44.700Z,9.36
2023-05-09T02:07:47.727Z,9.37
2023-05-09T02:08:53.184Z,9.36
2023-05-09T02:09:56.660Z,9.38
2023-05-09T02:11:01.305Z,9.39
2023-05-09T02:12:04.788Z,9.39
2023-05-09T02:13:09.589Z,9.37
2023-05-09T02:14:11.777Z,9.36
2023-05-09T02:15:19.126Z,9.34
2023-05-09T02:16:21.450Z,9.33
2023-05-09T02:17:26.138Z,9.32
2023-05-09T02:18:28.824Z,9.29
2023-05-09T02:19:33.436Z,9.29
2023-05-09T02:20:36.208Z,9.28
2023-05-09T02:21:41.370Z,9.27
2023-05-09T02:22:44.336Z,9.27
2023-05-09T02:23:49.129Z,9.30
2023-05-09T02:24:51.391Z,9.30
2023-05-09T02:25:57.133Z,9.31
2023-05-09T02:26:59.431Z,9.31
2023-05-09T02:28:05.422Z,9.28
2023-05-09T02:29:08.235Z,9.28
2023-05-09T02:30:23.604Z,9.23
2023-05-09T02:31:28.901Z,9.17
2023-05-09T02:32:36.155Z,9.12
2023-05-09T02:33:39.754Z,9.09
2023-05-09T02:34:45.514Z,9.06
2023-05-09T02:35:48.271Z,9.03
2023-05-09T02:36:53.035Z,9.01
2023-05-09T02:37:55.648Z,8.98
2023-05-09T02:39:00.354Z,8.96
2023-05-09T02:40:02.762Z,8.98
2023-05-09T02:41:07.686Z,8.96
2023-05-09T02:42:11.605Z,8.91
2023-05-09T02:43:16.280Z,8.87
2023-05-09T02:44:18.357Z,8.87
2023-05-09T02:45:25.890Z,8.87
2023-05-09T02:46:28.027Z,8.83
2023-05-09T02:47:32.864Z,8.80
2023-05-09T02:48:35.112Z,8.79
2023-05-09T02:49:39.831Z,8.78
2023-05-09T02:50:43.552Z,8.77
2023-05-09T02:51:48.193Z,8.75
2023-05-09T02:52:50.234Z,8.76
2023-05-09T02:53:55.008Z,8.77
2023-05-09T02:54:57.265Z,8.76
2023-05-09T02:56:01.896Z,8.76
2023-05-09T02:57:04.246Z,8.76
2023-05-09T02:58:14.300Z,8.74
2023-05-09T02:59:19.233Z,8.76
2023-05-09T03:00:26.906Z,8.76
2023-05-09T03:01:29.032Z,8.74
2023-05-09T03:02:34.120Z,8.72
2023-05-09T03:03:36.345Z,8.71
2023-05-09T03:04:41.386Z,8.70
2023-05-09T03:05:43.506Z,8.70
2023-05-09T03:06:48.437Z,8.68
2023-05-09T03:07:51.572Z,8.72
2023-05-09T03:08:56.296Z,8.73
2023-05-09T03:09:58.385Z,8.76
2023-05-09T03:11:03.024Z,8.74
2023-05-09T03:12:05.986Z,8.74
2023-05-09T03:13:12.161Z,8.76
2023-05-09T03:14:15.088Z,8.78
2023-05-09T03:15:19.786Z,8.80
2023-05-09T03:16:24.523Z,8.81
2023-05-09T03:17:29.209Z,8.82
2023-05-09T03:18:31.284Z,8.83
2023-05-09T03:19:35.927Z,8.85
2023-05-09T03:20:37.950Z,8.86
2023-05-09T03:21:42.700Z,8.86
2023-05-09T03:22:44.727Z,8.85
2023-05-09T03:23:49.715Z,8.86
2023-05-09T03:24:51.976Z,8.87
2023-05-09T03:25:56.838Z,8.86
2023-05-09T03:26:58.867Z,8.86
2023-05-09T03:28:03.574Z,8.89
2023-05-09T03:29:05.884Z,8.90
2023-05-09T03:30:11.941Z,8.93
2023-05-09T03:31:14.093Z,8.95
2023-05-09T03:32:21.411Z,8.99
2023-05-09T03:33:23.448Z,9.03
2023-05-09T03:34:28.111Z,9.05
2023-05-09T03:35:30.135Z,9.06
2023-05-09T03:36:34.800Z,9.07
2023-05-09T03:37:36.882Z,9.07
2023-05-09T03:38:41.506Z,9.07
2023-05-09T03:39:43.563Z,9.08
2023-05-09T03:40:48.193Z,9.08
2023-05-09T03:41:50.418Z,9.09
2023-05-09T03:42:55.055Z,9.10
2023-05-09T03:43:57.092Z,9.11
2023-05-09T03:45:01.750Z,9.14
2023-05-09T03:46:04.146Z,9.16
2023-05-09T03:47:08.785Z,9.17
2023-05-09T03:48:13.499Z,9.19
2023-05-09T03:49:18.164Z,9.21
2023-05-09T03:50:20.182Z,9.19
2023-05-09T03:51:25.204Z,9.22
2023-05-09T03:52:27.242Z,9.23
2023-05-09T03:53:32.045Z,9.26
2023-05-09T03:54:34.169Z,9.27
2023-05-09T03:55:38.816Z,9.28
2023-05-09T03:56:40.995Z,9.30
2023-05-09T03:57:46.434Z,9.30
2023-05-09T03:58:48.559Z,9.31
2023-05-09T03:59:53.248Z,9.32
2023-05-09T04:00:55.450Z,9.32
2023-05-09T04:02:00.901Z,9.33
2023-05-09T04:03:03.345Z,9.35
2023-05-09T04:04:10.917Z,9.36
2023-05-09T04:05:13.465Z,9.37
2023-05-09T04:06:18.568Z,9.37
2023-05-09T04:07:21.012Z,9.39
2023-05-09T04:08:25.960Z,9.40
2023-05-09T04:09:30.632Z,9.43
2023-05-09T04:10:32.710Z,9.45
2023-05-09T04:11:37.377Z,9.46
2023-05-09T04:12:39.485Z,9.46
2023-05-09T04:13:44.277Z,9.48
2023-05-09T04:14:48.814Z,9.51
2023-05-09T04:15:53.901Z,9.53
2023-05-09T04:16:56.042Z,9.53
2023-05-09T04:18:00.806Z,9.55
2023-05-09T04:19:02.932Z,9.57
2023-05-09T04:20:11.831Z,9.61
2023-05-09T04:21:13.867Z,9.63
2023-05-09T04:22:18.515Z,9.64
2023-05-09T04:23:20.576Z,9.69
2023-05-09T04:24:25.206Z,9.70
2023-05-09T04:25:27.365Z,9.73
2023-05-09T04:26:32.106Z,9.75
2023-05-09T04:27:34.137Z,9.79
2023-05-09T04:28:39.165Z,9.81
2023-05-09T04:29:41.239Z,9.84
2023-05-09T04:30:45.953Z,9.87
2023-05-09T04:31:48.095Z,9.90
2023-05-09T04:32:53.641Z,9.94
2023-05-09T04:33:55.915Z,9.96
2023-05-09T04:35:00.567Z,9.99
2023-05-09T04:36:06.359Z,10.05
2023-05-09T04:37:11.316Z,10.06
2023-05-09T04:38:13.342Z,10.07
2023-05-09T04:39:18.072Z,10.11
2023-05-09T04:40:20.289Z,10.13
2023-05-09T04:41:24.958Z,10.15
2023-05-09T04:42:27.017Z,10.17
2023-05-09T04:43:32.782Z,10.20
2023-05-09T04:44:36.013Z,10.21
2023-05-09T04:45:40.864Z,10.23
2023-05-09T04:46:43.911Z,10.24
2023-05-09T04:47:48.768Z,10.26
2023-05-09T04:48:50.932Z,10.27
2023-05-09T04:49:55.609Z,10.27
2023-05-09T04:50:57.642Z,10.31
2023-05-09T04:52:04.981Z,10.30
2023-05-09T04:53:08.546Z,10.32
2023-05-09T04:54:13.192Z,10.33
2023-05-09T04:55:15.792Z,10.31
2023-05-09T04:56:20.668Z,10.32
2023-05-09T04:57:22.691Z,10.32
2023-05-09T04:58:27.354Z,10.34
2023-05-09T04:59:29.425Z,10.34
2023-05-09T05:00:34.044Z,10.35
2023-05-09T05:01:36.103Z,10.33
2023-05-09T05:02:40.865Z,10.32
2023-05-09T05:03:43.233Z,10.31
2023-05-09T05:04:47.967Z,10.31
2023-05-09T05:05:50.075Z,10.30
2023-05-09T05:06:54.723Z,10.32
2023-05-09T05:07:59.537Z,10.31
2023-05-09T05:09:04.245Z,10.35
2023-05-09T05:10:07.545Z,10.36
2023-05-09T05:11:12.252Z,10.39
2023-05-09T05:12:14.364Z,10.38
2023-05-09T05:13:19.528Z,10.40
2023-05-09T05:14:21.615Z,10.43
2023-05-09T05:15:27.075Z,10.44
2023-05-09T05:16:29.152Z,10.49
2023-05-09T05:17:33.863Z,10.60
2023-05-09T05:18:36.102Z,10.64
2023-05-09T05:19:40.800Z,10.72
2023-05-09T05:20:46.011Z,10.82
2023-05-09T05:21:48.082Z,10.92
2023-05-09T05:22:54.655Z,11.01
2023-05-09T05:23:59.314Z,11.11
2023-05-09T05:25:04.656Z,11.20
2023-05-09T05:26:06.808Z,11.29
2023-05-09T05:27:11.550Z,11.38
2023-05-09T05:28:13.584Z,11.48
2023-05-09T05:29:18.335Z,11.59
2023-05-09T05:30:21.234Z,11.69
2023-05-09T05:31:26.130Z,11.79
2023-05-09T05:32:28.391Z,11.92
2023-05-09T05:33:44.005Z,12.02
2023-05-09T05:34:46.356Z,12.15
2023-05-09T05:35:51.607Z,12.26
2023-05-09T05:36:53.668Z,12.35
2023-05-09T05:37:58.401Z,12.44
2023-05-09T05:39:03.012Z,12.52
2023-05-09T05:40:09.296Z,12.59
2023-05-09T05:41:11.924Z,12.66
2023-05-09T05:42:16.546Z,12.69
2023-05-09T05:43:21.181Z,12.77
2023-05-09T05:44:25.906Z,12.80
2023-05-09T05:45:30.234Z,12.79
2023-05-09T05:46:34.902Z,12.83
2023-05-09T05:47:37.747Z,12.84
2023-05-09T05:48:42.739Z,12.89
2023-05-09T05:49:44.902Z,12.92
2023-05-09T05:50:49.546Z,12.99
2023-05-09T05:51:51.667Z,13.01
2023-05-09T05:52:56.298Z,13.04
2023-05-09T05:53:58.318Z,13.07
2023-05-09T05:55:05.720Z,13.09
2023-05-09T05:56:10.886Z,13.12
2023-05-09T05:57:12.950Z,13.16
2023-05-09T05:58:17.665Z,13.16
2023-05-09T05:59:19.720Z,13.22
2023-05-09T06:00:24.489Z,13.24
2023-05-09T06:01:26.946Z,13.28
2023-05-09T06:02:31.710Z,13.28
2023-05-09T06:03:36.497Z,13.28
2023-05-09T06:04:38.628Z,13.34
2023-05-09T06:05:45.907Z,13.39
2023-05-09T06:06:48.037Z,13.43
2023-05-09T06:07:52.708Z,13.50
2023-05-09T06:08:55.687Z,13.57
2023-05-09T06:10:00.374Z,13.69
2023-05-09T06:11:06.120Z,13.82
2023-05-09T06:12:12.114Z,13.94
2023-05-09T06:13:16.843Z,14.06
2023-05-09T06:14:19.128Z,14.14
2023-05-09T06:15:23.786Z,14.14
2023-05-09T06:16:25.975Z,14.23
2023-05-09T06:17:31.047Z,14.19
2023-05-09T06:18:35.819Z,14.17
2023-05-09T06:19:37.916Z,14.26
2023-05-09T06:20:42.563Z,14.27
2023-05-09T06:21:44.599Z,13.96
2023-05-09T06:22:49.208Z,13.98
2023-05-09T06:24:58.858Z,13.97
2023-05-09T06:26:03.474Z,13.98
2023-05-09T06:27:08.156Z,13.98
2023-05-09T06:28:12.809Z,14.02
2023-05-09T06:29:15.681Z,14.09
2023-05-09T06:31:25.871Z,14.19
2023-05-09T06:32:30.630Z,14.23
2023-05-09T06:33:32.636Z,14.22
2023-05-09T06:34:37.294Z,14.23
2023-05-09T06:35:41.941Z,14.16
2023-05-09T06:36:44.104Z,14.20
2023-05-09T06:37:49.278Z,14.18
2023-05-09T06:38:54.100Z,14.14
2023-05-09T06:39:56.132Z,14.07
2023-05-09T06:41:00.784Z,14.06
2023-05-09T06:42:02.919Z,14.01
2023-05-09T06:43:10.171Z,13.99
2023-05-09T06:44:12.282Z,13.94
2023-05-09T06:45:17.381Z,13.91
2023-05-09T06:46:22.537Z,13.88
2023-05-09T06:47:24.660Z,13.82
2023-05-09T06:48:29.604Z,13.85
2023-05-09T06:49:31.648Z,13.88
2023-05-09T06:50:36.302Z,13.91
2023-05-09T06:51:38.356Z,13.93
2023-05-09T06:52:43.035Z,14.04
2023-05-09T06:53:45.088Z,14.13
2023-05-09T06:54:49.726Z,14.20
2023-05-09T06:55:51.845Z,14.26
2023-05-09T06:56:56.600Z,14.28
2023-05-09T06:57:58.701Z,14.32
2023-05-09T06:59:06.253Z,14.36
2023-05-09T07:00:09.700Z,14.37
2023-05-09T07:01:14.401Z,14.46
2023-05-09T07:02:16.788Z,14.47
2023-05-09T07:03:21.489Z,14.41
2023-05-09T07:04:23.577Z,14.44
2023-05-09T07:05:28.307Z,14.46
2023-05-09T07:06:30.584Z,14.47
2023-05-09T07:07:35.236Z,14.50
2023-05-09T07:08:37.350Z,14.52
2023-05-09T07:09:42.037Z,14.55
2023-05-09T07:10:44.147Z,14.49
2023-05-09T07:11:48.829Z,14.51
2023-05-09T07:12:53.696Z,14.51
2023-05-09T07:13:55.869Z,14.45
2023-05-09T07:15:03.103Z,14.47
2023-05-09T07:16:05.934Z,14.52
2023-05-09T07:17:21.829Z,14.57
2023-05-09T07:18:28.079Z,14.63
2023-05-09T07:19:30.132Z,14.73
2023-05-09T07:20:34.767Z,14.75
2023-05-09T07:21:36.822Z,14.72
2023-05-09T07:22:41.532Z,14.73
2023-05-09T07:23:43.571Z,14.78
2023-05-09T07:24:48.232Z,14.88
2023-05-09T07:25:50.351Z,14.94
2023-05-09T07:26:55.216Z,14.98
2023-05-09T07:27:59.842Z,15.03
2023-05-09T07:29:04.510Z,15.12
2023-05-09T07:30:10.298Z,15.15
2023-05-09T07:31:14.980Z,15.24
2023-05-09T07:32:17.203Z,15.29
2023-05-09T07:33:21.854Z,15.37
2023-05-09T07:34:26.650Z,15.34
2023-05-09T07:35:28.757Z,15.45
2023-05-09T07:36:35.385Z,15.55
2023-05-09T07:37:40.752Z,15.61
2023-05-09T07:38:48.056Z,15.66
2023-05-09T07:39:50.186Z,15.80
2023-05-09T07:40:54.861Z,15.82
2023-05-09T07:41:56.910Z,15.97
2023-05-09T07:43:01.724Z,16.06
2023-05-09T07:44:06.378Z,16.16
2023-05-09T07:45:14.296Z,16.27
2023-05-09T07:46:16.479Z,16.42
2023-05-09T07:47:21.393Z,16.42
2023-05-09T07:48:23.609Z,16.52
2023-05-09T07:49:28.454Z,16.45
2023-05-09T07:50:30.691Z,16.50
2023-05-09T07:51:35.360Z,16.55
2023-05-09T07:52:37.382Z,16.58
2023-05-09T07:53:41.998Z,16.64
2023-05-09T07:54:44.372Z,16.77
2023-05-09T07:55:50.406Z,16.92
2023-05-09T07:56:55.466Z,17.04
2023-05-09T07:57:57.617Z,17.12
2023-05-09T07:59:03.557Z,17.23
2023-05-09T08:00:10.802Z,17.35
2023-05-09T08:01:18.422Z,17.39
2023-05-09T08:02:23.105Z,17.41
2023-05-09T08:03:25.272Z,17.56
2023-05-09T08:04:30.135Z,17.62
2023-05-09T08:05:32.261Z,17.61
2023-05-09T08:06:36.848Z,17.68
2023-05-09T08:07:38.884Z,17.87
2023-05-09T08:08:43.650Z,17.81
2023-05-09T08:09:45.770Z,17.75
2023-05-09T08:10:50.493Z,17.81
2023-05-09T08:11:52.578Z,17.67
2023-05-09T08:12:57.371Z,17.76
2023-05-09T08:13:59.387Z,17.64
2023-05-09T08:15:04.069Z,17.80
2023-05-09T08:16:08.975Z,17.85
2023-05-09T08:17:13.701Z,17.92
2023-05-09T08:18:18.324Z,17.89
2023-05-09T08:19:21.295Z,18.04
2023-05-09T08:20:25.957Z,18.15
2023-05-09T08:21:30.644Z,18.27
2023-05-09T08:22:32.889Z,18.43
2023-05-09T08:23:37.618Z,18.50
2023-05-09T08:24:39.674Z,18.72
2023-05-09T08:25:44.336Z,18.86
2023-05-09T08:26:46.377Z,18.89
2023-05-09T08:27:52.969Z,18.95
2023-05-09T08:28:55.280Z,18.72
2023-05-09T08:29:59.881Z,18.56
2023-05-09T08:31:02.105Z,18.11
2023-05-09T08:32:07.192Z,18.28
2023-05-09T08:33:11.855Z,18.52
2023-05-09T08:34:16.613Z,18.40
2023-05-09T08:35:18.776Z,18.49
2023-05-09T08:36:23.481Z,18.53
2023-05-09T08:37:27.608Z,18.41
2023-05-09T08:38:32.346Z,18.60
2023-05-09T08:39:35.475Z,18.86
2023-05-09T08:40:40.761Z,18.96
2023-05-09T08:41:43.403Z,19.14
2023-05-09T08:42:49.572Z,19.37
2023-05-09T08:43:52.049Z,19.44
2023-05-09T08:44:56.690Z,19.30
2023-05-09T08:46:00.749Z,19.42
2023-05-09T08:47:06.843Z,19.26
2023-05-09T08:48:12.024Z,19.64
2023-05-09T08:49:17.851Z,19.89
2023-05-09T08:50:23.784Z,20.18
2023-05-09T08:51:26.901Z,20.04
2023-05-09T08:52:33.752Z,19.86
2023-05-09T08:53:39.019Z,20.02
2023-05-09T08:54:41.079Z,20.29
2023-05-09T08:55:46.023Z,20.00
2023-05-09T08:56:48.428Z,19.34
2023-05-09T08:57:53.608Z,19.51
2023-05-09T08:58:59.272Z,19.68
2023-05-09T09:00:06.212Z,20.14
2023-05-09T09:01:09.186Z,20.37
2023-05-09T09:02:16.789Z,20.40
2023-05-09T09:03:24.024Z,20.60
2023-05-09T09:04:26.115Z,20.83
2023-05-09T09:05:41.187Z,20.87
2023-05-09T09:06:44.599Z,21.22
2023-05-09T09:07:49.662Z,21.29
2023-05-09T09:08:55.389Z,21.27
2023-05-09T09:10:01.780Z,21.43
2023-05-09T09:11:04.367Z,21.28
2023-05-09T09:12:10.733Z,20.95
2023-05-09T09:13:16.579Z,20.95
2023-05-09T09:14:26.539Z,21.36
2023-05-09T09:15:30.689Z,21.41
2023-05-09T09:16:37.139Z,21.07
2023-05-09T09:17:45.255Z,21.21
2023-05-09T09:18:56.816Z,21.66
2023-05-09T09:20:09.266Z,21.85
2023-05-09T09:21:15.997Z,21.93
2023-05-09T09:22:22.563Z,22.12
2023-05-09T09:23:28.797Z,22.25
2023-05-09T09:24:33.768Z,22.44
2023-05-09T09:25:36.017Z,22.68
2023-05-09T09:26:49.699Z,22.92
2023-05-09T09:27:54.344Z,22.85
2023-05-09T09:28:57.764Z,23.29
2023-05-09T09:30:10.267Z,23.53
2023-05-09T09:31:24.513Z,23.87
2023-05-09T09:32:36.786Z,24.19
2023-05-09T09:33:41.402Z,24.54
2023-05-09T09:34:52.741Z,24.58
2023-05-09T09:35:56.486Z,24.46
2023-05-09T09:37:01.330Z,24.65
2023-05-09T09:38:06.359Z,24.81
2023-05-09T09:39:11.122Z,25.07
2023-05-09T09:40:16.605Z,25.21
2023-05-09T09:41:18.823Z,25.30
2023-05-09T09:42:24.022Z,25.31
2023-05-09T09:43:29.978Z,25.47
2023-05-09T09:44:34.784Z,25.49
2023-05-09T09:45:38.463Z,25.16
2023-05-09T09:46:47.625Z,24.54
2023-05-09T09:47:53.932Z,25.03
2023-05-09T09:48:57.896Z,25.18
2023-05-09T09:50:13.050Z,25.47
2023-05-09T09:51:18.605Z,25.84
2023-05-09T09:52:27.222Z,25.88
2023-05-09T09:53:30.618Z,26.20
2023-05-09T09:54:35.644Z,26.16
2023-05-09T09:55:40.268Z,25.65
2023-05-09T09:56:44.020Z,25.91
2023-05-09T09:57:49.170Z,26.18
2023-05-09T09:58:51.179Z,26.14
2023-05-09T10:00:01.606Z,26.32
2023-05-09T10:01:09.975Z,26.32
2023-05-09T10:02:12.750Z,26.53
2023-05-09T10:03:18.327Z,26.75
2023-05-09T10:04:20.619Z,26.96
2023-05-09T10:05:29.265Z,27.06
2023-05-09T10:06:31.555Z,27.29
2023-05-09T10:07:37.153Z,27.14
2023-05-09T10:08:41.996Z,26.67
2023-05-09T10:09:48.795Z,26.44
2023-05-09T10:10:53.480Z,26.08
2023-05-09T10:11:59.592Z,26.52
2023-05-09T10:13:04.032Z,25.59
2023-05-09T10:14:08.763Z,26.09
2023-05-09T10:15:15.206Z,26.22
2023-05-09T10:16:25.907Z,26.68
2023-05-09T10:17:40.984Z,26.83
2023-05-09T10:18:46.224Z,26.71
2023-05-09T10:19:51.396Z,26.47
2023-05-09T10:21:03.716Z,25.85
2023-05-09T10:22:10.279Z,25.47
2023-05-09T10:23:17.961Z,24.89
2023-05-09T10:24:30.358Z,24.55
2023-05-09T10:25:42.316Z,24.23
2023-05-09T10:26:46.542Z,23.99
2023-05-09T10:27:52.160Z,23.45
2023-05-09T10:28:57.344Z,24.16
2023-05-09T10:30:07.398Z,24.88
2023-05-09T10:31:17.845Z,25.35
2023-05-09T10:32:27.056Z,25.26
2023-05-09T10:33:37.254Z,25.87
2023-05-09T10:34:42.620Z,26.24
2023-05-09T10:35:49.385Z,25.45
2023-05-09T10:36:54.521Z,25.66
2023-05-09T10:37:59.827Z,26.16
2023-05-09T10:39:04.787Z,25.70
2023-05-09T10:40:08.982Z,25.61
2023-05-09T10:41:14.330Z,25.17
2023-05-09T10:42:16.470Z,26.18
2023-05-09T10:43:21.706Z,26.19
2023-05-09T10:44:25.440Z,25.87
2023-05-09T10:45:30.492Z,25.97
2023-05-09T10:46:36.181Z,26.31
2023-05-09T10:47:39.886Z,26.46
2023-05-09T10:48:45.794Z,24.96
2023-05-09T10:49:52.215Z,24.38
2023-05-09T10:50:57.669Z,24.62
2023-05-09T10:52:04.880Z,25.20
2023-05-09T10:53:08.928Z,25.89
2023-05-09T10:54:18.403Z,26.33
2023-05-09T10:55:20.818Z,26.79
2023-05-09T10:56:27.175Z,27.02
2023-05-09T10:57:30.266Z,27.49
2023-05-09T10:58:37.841Z,27.68
2023-05-09T10:59:42.013Z,27.81
2023-05-09T11:00:47.053Z,28.07
2023-05-09T11:02:01.166Z,28.40
2023-05-09T11:03:09.239Z,28.49
2023-05-09T11:04:15.216Z,28.47
2023-05-09T11:05:22.333Z,28.58
2023-05-09T11:06:45.424Z,28.13
2023-05-09T11:08:30.388Z,28.60
2023-05-09T11:09:37.411Z,28.49
2023-05-09T11:10:45.500Z,28.80
2023-05-09T11:11:52.066Z,29.12
2023-05-09T11:12:58.552Z,28.99
2023-05-09T11:14:00.747Z,28.68
2023-05-09T11:15:10.523Z,28.65
2023-05-09T11:16:12.854Z,28.71
2023-05-09T11:17:30.763Z,28.42
2023-05-09T11:18:33.888Z,28.17
2023-05-09T11:19:40.623Z,28.32
2023-05-09T11:20:47.296Z,27.09
2023-05-09T11:22:01.103Z,27.45
2023-05-09T11:23:12.017Z,27.79
2023-05-09T11:24:20.643Z,28.02
2023-05-09T11:25:28.555Z,28.47
2023-05-09T11:26:34.288Z,28.51
2023-05-09T11:27:42.638Z,28.39
2023-05-09T11:28:56.968Z,28.94
2023-05-09T11:30:02.380Z,28.39
2023-05-09T11:31:14.599Z,29.11
2023-05-09T11:32:16.806Z,29.29
2023-05-09T11:33:25.914Z,28.17
2023-05-09T11:34:30.080Z,27.81
2023-05-09T11:35:34.744Z,28.29
2023-05-09T11:36:37.184Z,28.23
2023-05-09T11:37:49.796Z,28.33
2023-05-09T11:39:07.963Z,27.84
2023-05-09T11:40:16.091Z,27.75
2023-05-09T11:41:18.273Z,28.01
2023-05-09T11:42:24.178Z,28.56
2023-05-09T11:43:26.619Z,28.10
2023-05-09T11:44:33.560Z,28.10
2023-05-09T11:45:38.421Z,28.40
2023-05-09T11:46:40.480Z,28.62
2023-05-09T11:47:45.733Z,29.31
2023-05-09T11:48:49.425Z,29.56
2023-05-09T11:49:54.577Z,29.74
2023-05-09T11:50:56.709Z,29.94
2023-05-09T11:52:02.738Z,30.08
2023-05-09T11:53:08.489Z,30.11
2023-05-09T11:54:15.236Z,30.57
2023-05-09T11:55:23.130Z,30.50
2023-05-09T11:56:25.333Z,28.98
2023-05-09T11:57:31.063Z,29.44
2023-05-09T11:58:33.184Z,29.62
2023-05-09T11:59:38.482Z,29.80
2023-05-09T12:00:47.823Z,29.92
2023-05-09T12:01:49.954Z,29.95
2023-05-09T12:02:55.407Z,29.07
2023-05-09T12:03:58.358Z,29.53
2023-05-09T12:05:10.354Z,29.42
2023-05-09T12:06:19.182Z,28.33
2023-05-09T12:07:21.327Z,28.35
2023-05-09T12:08:28.685Z,28.90
2023-05-09T12:09:34.777Z,29.14
2023-05-09T12:10:41.754Z,28.07
2023-05-09T12:11:49.955Z,28.93
2023-05-09T12:12:57.267Z,29.48
2023-05-09T12:13:59.463Z,28.06
2023-05-09T12:15:06.750Z,28.78
2023-05-09T12:16:09.340Z,27.83
2023-05-09T12:17:14.148Z,28.31
2023-05-09T12:18:19.071Z,26.83
2023-05-09T12:19:21.342Z,26.29
2023-05-09T12:20:26.227Z,25.76
2023-05-09T12:21:31.667Z,25.11
2023-05-09T12:22:37.627Z,25.73
2023-05-09T12:23:39.664Z,26.37
2023-05-09T12:24:46.880Z,26.66
2023-05-09T12:25:51.782Z,26.97
2023-05-09T12:26:56.836Z,26.40
2023-05-09T12:28:01.578Z,26.19
2023-05-09T12:29:06.560Z,25.92
2023-05-09T12:30:14.343Z,26.33
2023-05-09T12:31:17.618Z,26.56
2023-05-09T12:32:22.607Z,25.85
2023-05-09T12:33:25.535Z,26.51
2023-05-09T12:34:30.358Z,26.92
2023-05-09T12:35:35.695Z,27.41
2023-05-09T12:36:40.384Z,28.17
2023-05-09T12:37:58.127Z,28.29
2023-05-09T12:39:00.242Z,28.61
2023-05-09T12:40:11.547Z,28.89
2023-05-09T12:41:30.983Z,29.04
2023-05-09T12:42:39.136Z,28.61
2023-05-09T12:43:41.375Z,27.30
2023-05-09T12:44:52.319Z,27.39
2023-05-09T12:45:54.375Z,27.97
2023-05-09T12:47:00.435Z,28.12
2023-05-09T12:48:06.264Z,27.87
2023-05-09T12:49:22.940Z,28.29
2023-05-09T12:50:35.665Z,29.05
2023-05-09T12:51:40.469Z,29.06
2023-05-09T12:52:54.681Z,28.99
2023-05-09T12:54:11.128Z,28.18
2023-05-09T12:55:15.997Z,27.91
2023-05-09T12:56:23.059Z,28.24
2023-05-09T12:57:31.667Z,28.80
2023-05-09T12:58:37.319Z,29.85
2023-05-09T12:59:47.217Z,30.76
2023-05-09T13:00:49.302Z,31.39
2023-05-09T13:01:59.111Z,31.94
2023-05-09T13:03:01.387Z,32.90
2023-05-09T13:04:07.962Z,33.71
2023-05-09T13:05:16.258Z,34.35
2023-05-09T13:06:19.316Z,34.86
2023-05-09T13:07:24.201Z,35.49
2023-05-09T13:08:26.843Z,35.36
2023-05-09T13:09:31.731Z,36.21
2023-05-09T13:10:36.387Z,36.47
2023-05-09T13:11:41.131Z,34.67
2023-05-09T13:12:48.612Z,35.55
2023-05-09T13:13:50.696Z,35.69
2023-05-09T13:14:55.799Z,35.81
2023-05-09T13:15:57.982Z,35.15
2023-05-09T13:17:02.720Z,35.13
2023-05-09T13:18:04.932Z,35.02
2023-05-09T13:19:09.948Z,34.79
2023-05-09T13:20:14.942Z,34.91
2023-05-09T13:21:17.235Z,34.74
2023-05-09T13:22:22.060Z,33.06
2023-05-09T13:23:24.103Z,32.96
2023-05-09T13:24:28.693Z,32.18
2023-05-09T13:25:33.569Z,31.79
2023-05-09T13:26:41.228Z,32.07
2023-05-09T13:27:43.283Z,32.04
2023-05-09T13:28:47.864Z,31.87
2023-05-09T13:29:49.992Z,32.13
2023-05-09T13:30:54.671Z,32.38
2023-05-09T13:31:57.172Z,32.21
2023-05-09T13:33:12.824Z,31.98
2023-05-09T13:34:26.433Z,31.47
2023-05-09T13:35:31.430Z,31.27
2023-05-09T13:36:36.167Z,31.33
2023-05-09T13:37:38.253Z,31.22
2023-05-09T13:38:43.247Z,31.22
2023-05-09T13:39:47.914Z,30.47
2023-05-09T13:40:50.070Z,31.08
2023-05-09T13:41:57.400Z,31.52
2023-05-09T13:42:59.521Z,31.44
2023-05-09T13:44:04.272Z,31.75
2023-05-09T13:45:10.277Z,32.04
2023-05-09T13:46:14.935Z,32.49
2023-05-09T13:47:19.772Z,32.65
2023-05-09T13:48:22.097Z,32.92
2023-05-09T13:49:28.437Z,32.52
2023-05-09T13:50:30.605Z,32.76
2023-05-09T13:51:35.462Z,32.65
2023-05-09T13:52:37.569Z,33.05
2023-05-09T13:53:42.173Z,32.67
2023-05-09T13:54:44.233Z,33.16
2023-05-09T13:55:49.235Z,32.80
2023-05-09T13:56:54.079Z,33.18
2023-05-09T13:58:01.305Z,31.98
2023-05-09T13:59:03.397Z,31.71
2023-05-09T14:00:09.993Z,32.64
2023-05-09T14:01:14.816Z,32.79
2023-05-09T14:02:19.781Z,32.29
2023-05-09T14:03:21.913Z,32.59
2023-05-09T14:04:26.531Z,32.51
2023-05-09T14:05:28.671Z,32.61
2023-05-09T14:06:33.397Z,32.20
2023-05-09T14:07:38.003Z,32.37
2023-05-09T14:08:40.062Z,32.54
2023-05-09T14:09:44.986Z,32.21
2023-05-09T14:10:48.284Z,31.65
2023-05-09T14:11:53.688Z,32.15